Time;durP1;ratioP1;P1;durP2;ratioP2;P2;SDS_P1;SDS_P2;PMS_P1;PMS_P2;Temp;Humidity;BMP_temperature;BMP_pressure;BME280_temperature;BME280_humidity;BME280_pressure;Samples;Min_cycle;Max_cycle;Signal;HPM_P1;HPM_P2
2023/09/18 00:00:50;;;;;;;4.53;3.13;;;18.50;99.90;;;;;;5095796;28;20176;-34
2023/09/18 00:03:18;;;;;;;6.18;2.97;;;18.60;99.90;;;;;;5095902;28;20180;-35
2023/09/18 00:05:45;;;;;;;4.45;2.83;;;18.60;99.90;;;;;;5092538;28;20257;-37
2023/09/18 00:08:11;;;;;;;6.95;3.20;;;18.50;99.90;;;;;;5095979;28;20194;-36
2023/09/18 00:10:37;;;;;;;6.05;3.22;;;18.50;99.90;;;;;;5094732;28;20184;-36
2023/09/18 00:13:03;;;;;;;5.28;3.20;;;18.50;99.90;;;;;;5095344;28;20207;-34
2023/09/18 00:15:29;;;;;;;4.25;2.90;;;18.50;99.90;;;;;;5095371;28;20204;-37
2023/09/18 00:17:55;;;;;;;3.83;2.85;;;18.40;99.90;;;;;;5094692;28;20172;-37
2023/09/18 00:20:26;;;;;;;3.35;2.90;;;18.50;99.90;;;;;;5095667;28;20183;-35
2023/09/18 00:22:56;;;;;;;3.88;3.22;;;18.40;99.90;;;;;;5095599;28;20179;-37
2023/09/18 00:25:22;;;;;;;5.03;3.35;;;18.40;99.90;;;;;;5094963;28;20719;-36
2023/09/18 00:27:48;;;;;;;7.10;3.45;;;18.40;99.90;;;;;;5094080;28;20245;-34
2023/09/18 00:30:14;;;;;;;5.35;3.70;;;18.30;99.90;;;;;;5095662;28;20188;-38
2023/09/18 00:32:40;;;;;;;5.30;3.40;;;18.30;99.90;;;;;;5094115;28;20200;-38
2023/09/18 00:35:06;;;;;;;5.88;3.35;;;18.30;99.90;;;;;;5091578;28;20186;-38
2023/09/18 00:37:32;;;;;;;7.90;3.47;;;18.40;99.90;;;;;;5093115;28;20198;-35
2023/09/18 00:39:58;;;;;;;3.53;3.22;;;18.40;99.90;;;;;;5097144;28;20172;-36
2023/09/18 00:42:25;;;;;;;4.28;3.05;;;18.40;99.90;;;;;;5094992;28;20180;-42
2023/09/18 00:44:51;;;;;;;3.53;3.22;;;18.40;99.90;;;;;;5093530;28;20172;-36
2023/09/18 00:47:17;;;;;;;3.78;3.47;;;18.50;99.90;;;;;;5094452;28;20225;-41
2023/09/18 00:49:47;;;;;;;6.63;3.50;;;18.50;99.90;;;;;;5087399;28;20199;-36
2023/09/18 00:52:14;;;;;;;6.72;3.30;;;18.50;99.90;;;;;;5094655;28;20212;-38
2023/09/18 00:54:41;;;;;;;4.18;3.40;;;18.60;99.90;;;;;;5112166;28;20253;-35
2023/09/18 00:57:09;;;;;;;4.30;3.50;;;18.50;99.90;;;;;;5094456;28;20199;-39
2023/09/18 00:59:34;;;;;;;4.00;3.30;;;18.60;99.90;;;;;;5094811;28;20192;-38
2023/09/18 01:02:02;;;;;;;5.80;3.28;;;18.60;99.90;;;;;;5094689;28;20185;-38
2023/09/18 01:04:29;;;;;;;6.53;3.45;;;18.70;99.90;;;;;;5109649;28;20206;-37
2023/09/18 01:06:57;;;;;;;4.93;3.15;;;18.70;99.90;;;;;;5093971;28;20252;-35
2023/09/18 01:09:24;;;;;;;6.20;2.90;;;18.80;99.90;;;;;;5136703;27;20266;-40
2023/09/18 01:12:11;;;;;;;5.60;3.22;;;18.80;99.90;;;;;;5108954;28;20186;-37
2023/09/18 01:14:43;;;;;;;7.95;3.20;;;18.80;99.90;;;;;;5110141;28;20207;-36
2023/09/18 01:17:13;;;;;;;3.95;3.55;;;18.90;99.90;;;;;;5107117;28;20208;-35
2023/09/18 01:19:46;;;;;;;5.68;3.28;;;18.90;99.90;;;;;;5091468;28;20267;-37
2023/09/18 01:22:15;;;;;;;5.45;3.30;;;18.80;99.90;;;;;;5110512;28;20191;-37
2023/09/18 01:24:44;;;;;;;4.03;3.45;;;18.80;99.90;;;;;;5109966;28;20176;-36
2023/09/18 01:27:16;;;;;;;7.25;3.30;;;18.80;99.90;;;;;;5092743;28;20250;-37
2023/09/18 01:29:43;;;;;;;5.38;3.40;;;18.80;99.90;;;;;;5093267;28;20180;-36
2023/09/18 01:32:09;;;;;;;8.30;3.63;;;18.60;99.90;;;;;;5082662;28;20210;-37
2023/09/18 01:34:48;;;;;;;6.43;3.70;;;18.60;99.90;;;;;;5091585;28;20208;-38
2023/09/18 01:37:19;;;;;;;5.38;3.72;;;18.70;99.90;;;;;;5107995;28;20203;-39
2023/09/18 01:39:47;;;;;;;6.07;3.85;;;18.70;99.90;;;;;;5091394;28;20183;-38
2023/09/18 01:42:13;;;;;;;5.45;3.30;;;18.80;99.90;;;;;;5099084;28;20187;-33
2023/09/18 01:44:39;;;;;;;8.82;3.63;;;18.80;99.90;;;;;;5092475;28;20278;-36
2023/09/18 01:47:08;;;;;;;6.53;3.75;;;18.90;99.90;;;;;;5091824;28;20207;-39
2023/09/18 01:49:36;;;;;;;4.18;3.33;;;18.90;99.90;;;;;;5108586;28;20186;-38
2023/09/18 01:52:04;;;;;;;5.68;3.90;;;18.90;99.90;;;;;;5092667;28;20183;-38
2023/09/18 01:54:34;;;;;;;9.13;3.67;;;18.90;99.90;;;;;;5107348;28;20257;-37
2023/09/18 01:57:01;;;;;;;5.10;3.33;;;18.80;99.90;;;;;;5108267;28;20196;-40
2023/09/18 01:59:27;;;;;;;5.53;3.13;;;18.70;99.90;;;;;;5092361;28;20187;-38
2023/09/18 02:01:53;;;;;;;3.88;3.28;;;18.50;99.90;;;;;;5086956;28;20169;-39
2023/09/18 02:04:20;;;;;;;4.00;3.22;;;18.50;99.90;;;;;;5091410;28;20192;-40
2023/09/18 02:06:48;;;;;;;5.45;3.00;;;18.50;99.90;;;;;;5091024;28;20203;-38
2023/09/18 02:09:14;;;;;;;5.63;3.75;;;18.50;99.90;;;;;;5091823;28;20222;-38
2023/09/18 02:11:42;;;;;;;4.85;3.35;;;18.50;99.90;;;;;;5088802;28;20187;-39
2023/09/18 02:14:09;;;;;;;4.82;3.63;;;18.60;99.90;;;;;;5110059;28;20200;-39
2023/09/18 02:16:42;;;;;;;5.70;3.75;;;18.50;99.90;;;;;;5090575;28;20195;-39
2023/09/18 02:19:09;;;;;;;7.65;3.90;;;18.60;99.90;;;;;;5107494;28;20243;-38
2023/09/18 02:21:37;;;;;;;5.70;3.80;;;18.70;99.90;;;;;;5089644;28;20173;-38
2023/09/18 02:24:05;;;;;;;5.18;3.63;;;18.60;99.90;;;;;;5093488;28;20283;-38
2023/09/18 02:26:31;;;;;;;6.65;3.80;;;18.60;99.90;;;;;;5093245;28;20207;-38
2023/09/18 02:29:05;;;;;;;6.65;4.00;;;18.60;99.90;;;;;;5093431;28;20176;-37
2023/09/18 02:31:31;;;;;;;5.32;3.78;;;18.60;99.90;;;;;;5088365;28;20199;-40
2023/09/18 02:33:57;;;;;;;7.07;3.63;;;18.50;99.90;;;;;;5109765;28;20660;-38
2023/09/18 02:36:23;;;;;;;10.13;3.75;;;18.50;99.90;;;;;;5093255;28;20233;-37
2023/09/18 02:38:49;;;;;;;6.45;3.60;;;18.50;99.90;;;;;;5092473;28;20195;-39
2023/09/18 02:41:14;;;;;;;7.47;3.47;;;18.60;99.90;;;;;;5089356;28;20186;-40
2023/09/18 02:43:40;;;;;;;6.13;3.17;;;18.60;99.90;;;;;;5092143;28;20187;-38
2023/09/18 02:46:07;;;;;;;5.63;3.55;;;18.60;99.90;;;;;;5108239;28;20229;-39
2023/09/18 02:48:33;;;;;;;5.45;3.55;;;18.60;99.90;;;;;;5092045;28;20215;-39
2023/09/18 02:51:03;;;;;;;5.30;3.42;;;18.70;99.90;;;;;;5110264;28;20179;-38
2023/09/18 02:53:29;;;;;;;7.18;3.58;;;18.60;99.90;;;;;;5092764;28;20837;-39
2023/09/18 02:55:58;;;;;;;6.05;3.75;;;18.60;99.90;;;;;;5087814;28;20297;-37
2023/09/18 02:58:30;;;;;;;6.25;3.67;;;18.60;99.90;;;;;;5091489;28;20180;-39
2023/09/18 03:01:00;;;;;;;5.07;3.35;;;18.60;99.90;;;;;;5092971;28;20176;-40
2023/09/18 03:03:27;;;;;;;6.57;3.63;;;18.60;99.90;;;;;;5091536;28;20286;-37
2023/09/18 03:05:59;;;;;;;5.32;3.38;;;18.60;99.90;;;;;;5093231;28;20290;-37
2023/09/18 03:08:26;;;;;;;8.25;2.90;;;18.60;99.90;;;;;;5073000;22;20221;-32
2023/09/18 03:10:52;;;;;;;7.95;3.25;;;18.50;99.90;;;;;;5068985;28;20180;-31
2023/09/18 03:13:18;;;;;;;6.80;3.50;;;18.50;99.90;;;;;;5061874;28;20205;-31
2023/09/18 03:15:47;;;;;;;7.38;3.20;;;18.40;99.90;;;;;;5076458;28;20197;-32
2023/09/18 03:18:13;;;;;;;6.20;3.67;;;18.30;99.90;;;;;;5061461;28;20194;-32
2023/09/18 03:20:41;;;;;;;8.73;3.70;;;18.30;99.90;;;;;;5044194;28;20199;-31
2023/09/18 03:23:07;;;;;;;5.85;3.35;;;18.20;99.90;;;;;;5057758;28;20193;-32
2023/09/18 03:25:32;;;;;;;5.63;2.97;;;18.20;99.90;;;;;;5050742;28;20182;-31
2023/09/18 03:27:59;;;;;;;4.65;2.85;;;18.20;99.90;;;;;;5068797;28;20222;-31
2023/09/18 03:30:29;;;;;;;9.23;3.10;;;18.30;99.90;;;;;;5045730;28;20177;-31
2023/09/18 03:32:56;;;;;;;8.75;3.45;;;18.40;99.90;;;;;;5058371;28;20190;-31
2023/09/18 03:35:23;;;;;;;7.57;3.13;;;18.40;99.90;;;;;;5054154;28;20174;-32
2023/09/18 03:37:52;;;;;;;13.80;3.72;;;18.40;99.90;;;;;;5057806;28;20200;-31
2023/09/18 03:40:19;;;;;;;5.60;3.15;;;18.50;99.90;;;;;;5068451;28;20177;-31
2023/09/18 03:42:45;;;;;;;5.57;3.13;;;18.50;99.90;;;;;;5053587;28;20299;-31
2023/09/18 03:45:12;;;;;;;6.28;3.13;;;18.40;99.90;;;;;;5046192;28;20203;-31
2023/09/18 03:47:40;;;;;;;4.22;2.95;;;18.50;99.90;;;;;;5049739;28;20201;-31
2023/09/18 03:50:13;;;;;;;6.55;3.25;;;18.40;99.90;;;;;;5068411;28;20177;-31
2023/09/18 03:52:45;;;;;;;8.93;3.47;;;18.40;99.90;;;;;;5042342;28;20234;-31
2023/09/18 03:55:14;;;;;;;4.75;3.10;;;18.50;99.90;;;;;;5064094;28;20177;-31
2023/09/18 03:57:42;;;;;;;6.22;3.00;;;18.50;99.90;;;;;;5048644;28;20195;-31
2023/09/18 04:00:08;;;;;;;4.75;3.20;;;18.50;99.90;;;;;;5063200;28;20276;-31
2023/09/18 04:02:42;;;;;;;6.30;3.15;;;18.60;99.90;;;;;;5048071;28;20181;-32
2023/09/18 04:05:09;;;;;;;5.90;3.15;;;18.50;99.90;;;;;;5058013;28;20214;-32
2023/09/18 04:07:35;;;;;;;5.30;2.92;;;18.50;99.90;;;;;;5054108;28;20209;-31
2023/09/18 04:10:02;;;;;;;9.23;3.20;;;18.40;99.90;;;;;;5069691;28;20201;-31
2023/09/18 04:12:28;;;;;;;10.25;3.25;;;18.50;99.90;;;;;;5062789;28;20180;-32
2023/09/18 04:14:54;;;;;;;6.10;3.30;;;18.50;99.90;;;;;;5062783;28;20178;-31
2023/09/18 04:17:21;;;;;;;7.63;3.42;;;18.50;99.90;;;;;;5058131;28;20256;-31
2023/09/18 04:19:48;;;;;;;7.22;3.28;;;18.50;99.90;;;;;;5058549;28;20272;-31
2023/09/18 04:22:15;;;;;;;6.22;3.30;;;18.50;99.90;;;;;;5064716;28;20314;-31
2023/09/18 04:24:42;;;;;;;7.07;3.38;;;18.40;99.90;;;;;;5062064;28;20224;-30
2023/09/18 04:27:10;;;;;;;5.22;2.85;;;18.50;99.90;;;;;;5064460;28;20196;-32
2023/09/18 04:29:36;;;;;;;5.95;3.40;;;18.50;99.90;;;;;;5061177;28;20181;-31
2023/09/18 04:32:05;;;;;;;5.05;3.10;;;18.50;99.90;;;;;;5064444;28;20185;-31
2023/09/18 04:34:31;;;;;;;7.88;3.40;;;18.50;99.90;;;;;;5060748;28;20205;-31
2023/09/18 04:36:58;;;;;;;7.07;3.20;;;18.50;99.90;;;;;;5063057;28;20220;-31
2023/09/18 04:39:23;;;;;;;6.15;3.40;;;18.50;99.90;;;;;;5060185;28;20166;-31
2023/09/18 04:41:49;;;;;;;5.68;3.33;;;18.60;99.90;;;;;;5044960;28;20181;-31
2023/09/18 04:44:17;;;;;;;6.65;3.38;;;18.60;99.90;;;;;;5049589;28;20177;-30
2023/09/18 04:46:44;;;;;;;6.15;3.05;;;18.70;99.90;;;;;;5060059;28;20181;-32
2023/09/18 04:49:12;;;;;;;8.45;2.75;;;18.60;99.90;;;;;;5063875;28;20217;-31
2023/09/18 04:51:41;;;;;;;6.63;3.10;;;18.60;99.90;;;;;;5062300;28;20293;-31
2023/09/18 04:54:08;;;;;;;6.93;3.03;;;18.70;99.90;;;;;;5060213;28;20201;-31
2023/09/18 04:56:34;;;;;;;5.60;3.05;;;18.70;99.90;;;;;;5060725;28;20174;-31
2023/09/18 04:59:03;;;;;;;5.10;3.00;;;18.60;99.90;;;;;;5046659;28;20184;-32
2023/09/18 05:01:30;;;;;;;8.02;3.28;;;18.50;99.90;;;;;;5059131;28;20303;-31
2023/09/18 05:03:56;;;;;;;4.60;3.22;;;18.50;99.90;;;;;;5062458;28;20191;-31
2023/09/18 05:06:21;;;;;;;6.97;2.75;;;18.50;99.90;;;;;;5052715;28;20189;-32
2023/09/18 05:08:47;;;;;;;4.25;2.85;;;18.50;99.90;;;;;;5053811;28;20225;-31
2023/09/18 05:11:13;;;;;;;10.50;3.78;;;18.60;99.90;;;;;;5054460;28;20181;-32
2023/09/18 05:13:39;;;;;;;7.97;3.58;;;18.60;99.90;;;;;;5068293;28;20266;-31
2023/09/18 05:16:05;;;;;;;4.25;3.10;;;18.60;99.90;;;;;;5056516;28;20185;-31
2023/09/18 05:18:31;;;;;;;9.38;3.38;;;18.70;99.90;;;;;;5046089;28;20762;-32
2023/09/18 05:20:58;;;;;;;6.50;3.15;;;18.60;99.90;;;;;;5070486;28;20297;-31
2023/09/18 05:23:23;;;;;;;9.95;3.40;;;18.60;99.90;;;;;;5047334;28;20666;-31
2023/09/18 05:25:49;;;;;;;11.63;3.40;;;18.60;99.90;;;;;;5077932;28;20276;-32
2023/09/18 05:28:15;;;;;;;9.68;3.25;;;18.60;99.90;;;;;;5070808;28;20207;-31
2023/09/18 05:30:41;;;;;;;5.68;3.00;;;18.60;99.90;;;;;;5053553;28;20272;-31
2023/09/18 05:33:08;;;;;;;6.82;2.90;;;18.50;99.90;;;;;;5041977;28;20711;-31
2023/09/18 05:35:42;;;;;;;7.05;2.97;;;18.60;99.90;;;;;;5045096;28;20186;-32
2023/09/18 05:38:13;;;;;;;8.07;3.13;;;18.60;99.90;;;;;;5070183;28;20212;-31
2023/09/18 05:40:40;;;;;;;6.82;3.45;;;18.60;99.90;;;;;;5070778;28;20169;-31
2023/09/18 05:43:07;;;;;;;9.13;3.20;;;18.60;99.90;;;;;;5064892;28;20189;-30
2023/09/18 05:45:33;;;;;;;9.88;3.47;;;18.70;99.90;;;;;;5065316;28;20178;-30
2023/09/18 05:48:06;;;;;;;5.25;3.00;;;18.70;99.90;;;;;;5069712;28;20235;-31
2023/09/18 05:50:35;;;;;;;10.38;3.00;;;18.70;99.90;;;;;;5070601;28;20177;-32
2023/09/18 05:53:03;;;;;;;9.95;3.55;;;18.70;99.90;;;;;;5036799;28;20247;-31
2023/09/18 05:55:31;;;;;;;9.30;3.25;;;18.80;99.90;;;;;;5068272;28;20188;-31
2023/09/18 05:57:57;;;;;;;7.60;3.05;;;18.80;99.90;;;;;;5059617;28;20297;-31
2023/09/18 06:00:23;;;;;;;7.43;2.78;;;18.90;99.90;;;;;;5059330;28;20188;-31
2023/09/18 06:02:51;;;;;;;9.27;3.05;;;18.90;99.90;;;;;;5069348;28;20193;-30
2023/09/18 06:05:17;;;;;;;5.50;2.53;;;19.00;99.90;;;;;;5065014;28;20182;-31
2023/09/18 06:07:44;;;;;;;5.97;2.83;;;19.00;99.90;;;;;;5072063;28;20224;-31
2023/09/18 06:10:10;;;;;;;6.68;2.75;;;19.10;99.90;;;;;;5053213;28;20216;-31
2023/09/18 06:12:38;;;;;;;6.93;2.50;;;19.10;99.90;;;;;;5069866;28;20217;-31
2023/09/18 06:15:11;;;;;;;7.60;2.20;;;19.20;99.90;;;;;;5061962;28;20178;-31
2023/09/18 06:17:41;;;;;;;10.02;2.25;;;19.20;99.90;;;;;;5060997;28;20206;-31
2023/09/18 06:20:09;;;;;;;10.00;2.47;;;19.30;99.90;;;;;;5053907;28;20181;-31
2023/09/18 06:22:40;;;;;;;10.48;2.17;;;19.30;99.90;;;;;;5069112;28;20181;-31
2023/09/18 06:25:07;;;;;;;8.20;2.33;;;19.40;99.90;;;;;;5066040;28;20177;-31
2023/09/18 06:27:36;;;;;;;4.63;1.90;;;19.40;99.90;;;;;;5058186;28;20236;-31
2023/09/18 06:30:03;;;;;;;5.95;2.38;;;19.50;99.90;;;;;;5060852;28;20169;-31
2023/09/18 06:32:29;;;;;;;5.20;2.15;;;19.50;99.90;;;;;;5065548;28;20192;-30
2023/09/18 06:34:57;;;;;;;10.15;2.42;;;19.50;99.90;;;;;;5069512;28;20239;-30
2023/09/18 06:37:23;;;;;;;4.03;2.00;;;19.50;99.90;;;;;;5047474;28;20209;-31
2023/09/18 06:39:49;;;;;;;6.88;2.25;;;19.50;99.90;;;;;;5049303;28;20181;-31
2023/09/18 06:42:15;;;;;;;5.93;1.95;;;19.50;99.90;;;;;;5054795;28;20238;-31
2023/09/18 06:44:41;;;;;;;4.97;1.95;;;19.50;99.90;;;;;;5053355;28;20223;-31
2023/09/18 06:47:07;;;;;;;5.53;2.33;;;19.50;99.90;;;;;;5061746;28;20247;-31
2023/09/18 06:49:33;;;;;;;6.63;2.13;;;19.50;99.90;;;;;;5061291;28;20638;-31
2023/09/18 06:51:59;;;;;;;8.18;2.10;;;19.50;99.90;;;;;;5044324;28;20185;-31
2023/09/18 06:54:25;;;;;;;4.55;1.98;;;19.50;99.90;;;;;;5044256;28;20193;-30
2023/09/18 06:56:51;;;;;;;6.25;2.10;;;19.50;99.90;;;;;;5053478;28;20194;-31
2023/09/18 06:59:17;;;;;;;6.00;2.42;;;19.50;99.90;;;;;;5081079;28;20196;-31
2023/09/18 07:01:43;;;;;;;7.95;2.13;;;19.60;99.90;;;;;;5066578;28;20288;-31
2023/09/18 07:04:09;;;;;;;9.15;1.88;;;19.60;99.90;;;;;;5066853;28;20185;-31
2023/09/18 07:06:36;;;;;;;6.75;2.28;;;19.60;99.90;;;;;;5064228;28;20195;-31
2023/09/18 07:09:06;;;;;;;3.72;1.88;;;19.60;99.90;;;;;;5060330;28;20208;-31
2023/09/18 07:11:35;;;;;;;6.53;1.85;;;19.60;99.90;;;;;;5064429;28;20188;-31
2023/09/18 07:14:05;;;;;;;7.38;2.10;;;19.70;99.90;;;;;;5061187;28;20292;-32
2023/09/18 07:16:31;;;;;;;4.28;1.88;;;19.70;99.90;;;;;;5049170;28;20264;-31
2023/09/18 07:18:57;;;;;;;6.00;2.17;;;19.80;99.90;;;;;;5070414;28;20235;-31
2023/09/18 07:21:24;;;;;;;3.95;1.70;;;19.80;99.90;;;;;;5054571;28;20209;-31
2023/09/18 07:23:51;;;;;;;5.13;2.08;;;19.80;99.90;;;;;;5042839;28;20272;-31
2023/09/18 07:26:17;;;;;;;7.18;2.17;;;19.70;99.90;;;;;;5058345;28;20186;-31
2023/09/18 07:28:44;;;;;;;8.75;2.00;;;19.80;99.90;;;;;;5053692;28;20205;-31
2023/09/18 07:31:12;;;;;;;5.65;2.08;;;19.70;99.90;;;;;;5044968;28;20185;-33
2023/09/18 07:33:38;;;;;;;7.68;2.10;;;19.70;99.90;;;;;;5043864;28;20213;-31
2023/09/18 07:36:04;;;;;;;4.55;2.08;;;19.70;99.90;;;;;;5044878;28;20273;-31
2023/09/18 07:38:31;;;;;;;7.53;2.33;;;19.70;99.90;;;;;;5072292;28;20699;-31
2023/09/18 07:40:58;;;;;;;2.67;1.83;;;19.70;99.90;;;;;;5072620;28;20177;-31
2023/09/18 07:43:30;;;;;;;8.07;2.10;;;19.80;99.90;;;;;;5069953;28;20197;-31
2023/09/18 07:46:04;;;;;;;7.13;2.00;;;19.80;99.90;;;;;;5067767;28;20189;-31
2023/09/18 07:48:40;;;;;;;4.72;2.00;;;19.80;99.90;;;;;;5084402;28;20211;-31
2023/09/18 07:51:16;;;;;;;7.82;1.92;;;19.90;99.90;;;;;;5055679;28;20200;-31
2023/09/18 07:53:48;;;;;;;3.92;2.00;;;19.90;99.90;;;;;;5055074;28;20210;-31
2023/09/18 07:56:15;;;;;;;5.05;1.88;;;19.90;99.90;;;;;;5063809;28;20228;-31
2023/09/18 07:58:42;;;;;;;8.02;1.75;;;19.90;99.90;;;;;;5064595;28;20198;-31
2023/09/18 08:01:11;;;;;;;5.57;1.90;;;19.80;99.90;;;;;;5070561;28;20215;-31
2023/09/18 08:03:37;;;;;;;4.80;1.92;;;19.80;99.90;;;;;;5060935;28;20186;-31
2023/09/18 08:06:04;;;;;;;9.02;2.42;;;19.80;99.90;;;;;;5047616;28;20185;-31
2023/09/18 08:08:32;;;;;;;3.90;1.77;;;19.70;99.90;;;;;;5049969;28;20225;-31
2023/09/18 08:10:58;;;;;;;5.85;2.05;;;19.70;99.90;;;;;;5070182;28;20194;-31
2023/09/18 08:13:24;;;;;;;4.32;1.70;;;19.60;99.90;;;;;;5051313;28;20213;-31
2023/09/18 08:15:50;;;;;;;4.82;1.63;;;19.50;99.90;;;;;;5070022;28;20651;-31
2023/09/18 08:18:16;;;;;;;5.22;1.73;;;19.40;99.90;;;;;;5051843;28;20252;-31
2023/09/18 08:20:43;;;;;;;7.57;1.95;;;19.30;99.90;;;;;;5077689;28;20182;-31
2023/09/18 08:23:10;;;;;;;5.28;2.00;;;19.20;99.90;;;;;;5055280;28;20200;-31
2023/09/18 08:25:36;;;;;;;6.32;1.98;;;19.10;99.90;;;;;;5040060;28;20182;-31
2023/09/18 08:28:04;;;;;;;6.70;2.03;;;19.00;99.90;;;;;;5061241;28;20213;-31
2023/09/18 08:30:30;;;;;;;5.13;2.00;;;19.00;99.90;;;;;;5065421;28;20228;-31
2023/09/18 08:32:56;;;;;;;3.70;1.90;;;19.00;99.90;;;;;;5059169;28;20206;-31
2023/09/18 08:35:22;;;;;;;5.78;2.10;;;19.00;99.90;;;;;;5047895;28;20219;-31
2023/09/18 08:37:48;;;;;;;5.13;2.00;;;19.10;99.90;;;;;;5047320;28;20206;-32
2023/09/18 08:40:14;;;;;;;6.78;2.60;;;19.10;99.90;;;;;;5051767;28;20277;-31
2023/09/18 08:42:47;;;;;;;5.95;1.80;;;19.10;99.90;;;;;;5070255;28;20268;-31
2023/09/18 08:45:27;;;;;;;7.10;2.00;;;19.10;99.90;;;;;;5043785;28;20184;-31
2023/09/18 08:47:54;;;;;;;7.18;2.08;;;19.10;99.90;;;;;;5067535;28;20663;-32
2023/09/18 08:50:20;;;;;;;5.47;1.98;;;19.10;99.90;;;;;;5068067;28;20189;-32
2023/09/18 08:52:47;;;;;;;4.80;1.42;;;19.00;99.90;;;;;;5051763;28;20186;-33
2023/09/18 08:55:13;;;;;;;4.38;1.80;;;19.10;99.90;;;;;;5069054;28;20177;-32
2023/09/18 08:57:41;;;;;;;6.43;1.80;;;19.10;99.90;;;;;;5070094;28;20261;-32
2023/09/18 09:00:11;;;;;;;4.35;1.75;;;19.10;99.90;;;;;;5046587;28;20241;-31
2023/09/18 09:02:36;;;;;;;3.67;1.73;;;19.00;99.90;;;;;;5054270;28;20182;-31
2023/09/18 09:05:03;;;;;;;3.05;1.40;;;19.00;99.90;;;;;;5057566;28;20174;-31
2023/09/18 09:07:31;;;;;;;5.80;1.70;;;19.00;99.90;;;;;;5109155;22;20252;-29
2023/09/18 09:09:56;;;;;;;2.78;1.50;;;19.10;99.90;;;;;;5045762;28;20174;-29
2023/09/18 09:12:58;;;;;;;4.88;1.70;;;19.10;99.90;;;;;;5054355;28;20185;-29
2023/09/18 09:15:27;;;;;;;3.58;1.38;;;19.20;99.90;;;;;;5071221;28;20196;-29
2023/09/18 09:18:05;;;;;;;3.55;1.50;;;19.20;99.90;;;;;;5045736;28;20293;-29
2023/09/18 09:20:31;;;;;;;3.38;1.30;;;19.30;99.90;;;;;;5042573;28;20235;-30
2023/09/18 09:23:01;;;;;;;2.83;1.63;;;19.40;99.90;;;;;;5034410;28;20178;-30
2023/09/18 09:25:31;;;;;;;4.65;1.77;;;19.40;99.90;;;;;;5058145;28;20181;-29
2023/09/18 09:27:58;;;;;;;2.88;1.25;;;19.50;99.90;;;;;;5046096;28;20194;-29
2023/09/18 09:30:26;;;;;;;3.10;1.55;;;19.40;99.90;;;;;;5054373;28;20626;-29
2023/09/18 09:32:54;;;;;;;2.53;1.30;;;19.40;99.90;;;;;;5054024;28;20193;-29
2023/09/18 09:35:27;;;;;;;2.80;1.45;;;19.40;99.90;;;;;;5066881;28;20177;-30
2023/09/18 09:37:56;;;;;;;5.60;1.63;;;19.40;99.90;;;;;;5056049;28;20220;-30
2023/09/18 09:40:24;;;;;;;5.13;1.27;;;19.40;99.90;;;;;;5055880;28;20227;-30
2023/09/18 09:43:00;;;;;;;1.40;1.25;;;19.50;99.90;;;;;;5059839;28;20185;-29
2023/09/18 09:45:31;;;;;;;2.95;1.65;;;19.50;99.90;;;;;;5057908;28;20189;-29
2023/09/18 09:47:57;;;;;;;3.15;1.70;;;19.60;99.90;;;;;;5051407;28;20197;-31
2023/09/18 09:50:25;;;;;;;4.70;1.65;;;19.70;99.90;;;;;;5042420;28;20177;-30
2023/09/18 09:52:53;;;;;;;2.35;1.30;;;19.70;99.90;;;;;;5065326;28;20177;-29
2023/09/18 09:55:33;;;;;;;4.70;1.23;;;19.70;99.90;;;;;;5046808;28;20227;-30
2023/09/18 09:58:04;;;;;;;2.35;1.30;;;19.80;99.90;;;;;;5046355;28;20193;-30
2023/09/18 10:00:51;;;;;;;4.43;1.40;;;19.80;99.90;;;;;;5066052;28;20173;-30
2023/09/18 10:03:19;;;;;;;3.65;1.13;;;19.80;99.90;;;;;;5055759;28;20192;-29
2023/09/18 10:05:46;;;;;;;4.28;1.50;;;19.70;99.90;;;;;;5053400;28;20181;-29
2023/09/18 10:08:17;;;;;;;1.77;0.95;;;19.70;99.90;;;;;;5060243;28;20247;-30
2023/09/18 10:10:49;;;;;;;3.05;1.20;;;19.70;99.90;;;;;;5055127;28;20205;-29
2023/09/18 10:13:32;;;;;;;2.30;1.20;;;19.60;99.90;;;;;;5050092;28;20282;-29
2023/09/18 10:16:06;;;;;;;2.13;1.20;;;19.50;99.90;;;;;;5066532;28;20173;-33
2023/09/18 10:19:08;;;;;;;4.25;1.40;;;19.50;99.90;;;;;;5053155;28;20204;-28
2023/09/18 10:22:05;;;;;;;1.73;1.17;;;19.40;99.90;;;;;;5061764;28;20168;-29
2023/09/18 10:24:39;;;;;;;4.25;1.50;;;19.50;99.90;;;;;;5062673;28;20181;-30
2023/09/18 10:27:06;;;;;;;2.40;1.10;;;19.50;99.90;;;;;;5048529;28;20181;-30
2023/09/18 10:29:36;;;;;;;2.53;1.13;;;19.40;99.90;;;;;;5044951;28;20193;-29
2023/09/18 10:32:09;;;;;;;2.28;1.40;;;19.40;99.90;;;;;;5062246;28;20219;-30
2023/09/18 10:34:36;;;;;;;2.95;1.40;;;19.40;99.90;;;;;;5043006;28;20205;-29
2023/09/18 10:37:07;;;;;;;2.20;1.50;;;19.50;99.90;;;;;;5067699;28;20185;-28
2023/09/18 10:39:39;;;;;;;1.20;1.10;;;19.50;99.90;;;;;;5050330;28;20168;-29
2023/09/18 10:42:08;;;;;;;2.33;1.30;;;19.50;99.90;;;;;;5056873;28;20216;-30
2023/09/18 10:44:34;;;;;;;3.35;1.48;;;19.50;99.90;;;;;;5049131;28;20276;-29
2023/09/18 10:47:01;;;;;;;2.83;1.23;;;19.50;99.90;;;;;;5057010;28;20181;-31
2023/09/18 10:49:27;;;;;;;3.30;1.40;;;19.50;99.90;;;;;;5061477;28;20192;-30
2023/09/18 10:51:54;;;;;;;4.18;1.30;;;19.60;99.90;;;;;;5060299;28;20185;-31
2023/09/18 10:54:23;;;;;;;3.22;1.20;;;19.60;99.90;;;;;;5066161;28;20346;-30
2023/09/18 10:56:48;;;;;;;2.92;1.40;;;19.70;99.90;;;;;;5051975;28;20189;-29
2023/09/18 10:59:16;;;;;;;3.30;1.45;;;19.70;99.90;;;;;;5065984;28;20181;-30
2023/09/18 11:01:42;;;;;;;2.85;1.45;;;19.70;99.90;;;;;;5045729;28;20185;-30
2023/09/18 11:04:10;;;;;;;3.33;1.30;;;19.70;99.90;;;;;;5043941;28;20230;-29
2023/09/18 11:06:59;;;;;;;3.45;1.30;;;19.70;99.90;;;;;;5061442;28;20182;-30
2023/09/18 11:09:33;;;;;;;2.63;1.40;;;19.70;99.90;;;;;;5065078;28;20261;-29
2023/09/18 11:12:03;;;;;;;3.47;1.45;;;19.70;99.90;;;;;;5067453;28;20200;-29
2023/09/18 11:14:54;;;;;;;5.63;1.38;;;19.80;99.90;;;;;;5071310;28;20234;-30
2023/09/18 11:17:35;;;;;;;2.35;1.08;;;19.80;99.90;;;;;;5058730;28;20197;-30
2023/09/18 11:20:24;;;;;;;2.38;1.35;;;19.80;99.90;;;;;;5052024;28;20180;-29
2023/09/18 11:23:16;;;;;;;2.70;1.40;;;19.70;99.90;;;;;;5061076;28;20182;-28
2023/09/18 11:25:42;;;;;;;4.10;1.60;;;19.70;99.90;;;;;;5070340;28;20180;-30
2023/09/18 11:28:31;;;;;;;2.53;1.27;;;19.70;99.90;;;;;;5045675;28;20220;-30
2023/09/18 11:31:01;;;;;;;1.58;1.02;;;19.70;99.90;;;;;;5071118;28;20174;-29
2023/09/18 11:33:43;;;;;;;2.25;1.35;;;19.70;99.90;;;;;;5070141;28;20243;-29
2023/09/18 11:36:14;;;;;;;3.10;1.60;;;19.70;99.90;;;;;;5046084;28;20205;-30
2023/09/18 11:39:03;;;;;;;2.08;1.30;;;19.80;99.90;;;;;;5067796;28;20198;-30
2023/09/18 11:41:39;;;;;;;1.85;1.10;;;19.80;99.90;;;;;;5064605;28;20179;-30
2023/09/18 11:44:14;;;;;;;1.45;1.05;;;19.70;99.90;;;;;;5064734;28;20203;-31
2023/09/18 11:46:47;;;;;;;1.95;1.17;;;19.70;99.90;;;;;;5055356;28;20177;-29
2023/09/18 11:49:21;;;;;;;1.00;0.90;;;19.70;99.90;;;;;;5053891;28;20283;-29
2023/09/18 11:51:48;;;;;;;2.85;1.20;;;19.70;99.90;;;;;;5069632;28;20183;-30
2023/09/18 11:54:16;;;;;;;1.20;1.10;;;19.80;99.90;;;;;;5047568;28;20217;-30
2023/09/18 11:56:42;;;;;;;1.90;1.20;;;19.80;99.90;;;;;;5067433;28;20289;-30
2023/09/18 11:59:10;;;;;;;2.42;1.10;;;19.90;99.90;;;;;;5057526;28;20205;-29
2023/09/18 12:01:40;;;;;;;2.83;1.05;;;19.90;99.90;;;;;;5052733;28;20216;-30
2023/09/18 12:04:11;;;;;;;2.35;1.15;;;19.90;99.90;;;;;;5069756;28;20264;-30
2023/09/18 12:06:39;;;;;;;1.20;1.10;;;19.90;99.90;;;;;;5071115;28;20189;-30
2023/09/18 12:09:06;;;;;;;4.60;1.00;;;19.90;99.90;;;;;;5046046;28;20213;-30
2023/09/18 12:11:39;;;;;;;2.53;1.38;;;19.90;99.90;;;;;;5066582;28;20220;-29
2023/09/18 12:14:06;;;;;;;1.42;1.20;;;19.90;99.90;;;;;;5054200;28;20201;-30
2023/09/18 12:16:39;;;;;;;3.53;1.30;;;19.90;99.90;;;;;;5063076;28;20205;-30
2023/09/18 12:19:08;;;;;;;1.65;1.30;;;19.90;99.90;;;;;;5048794;28;20291;-29
2023/09/18 12:21:41;;;;;;;2.22;1.10;;;20.00;99.90;;;;;;5038056;28;20178;-29
2023/09/18 12:24:13;;;;;;;1.77;1.15;;;20.00;99.90;;;;;;5072093;28;20181;-29
2023/09/18 12:26:40;;;;;;;3.58;1.50;;;20.10;99.90;;;;;;5061353;28;20186;-29
2023/09/18 12:29:08;;;;;;;2.40;1.20;;;20.30;99.90;;;;;;5064360;28;20233;-29
2023/09/18 12:31:37;;;;;;;1.90;1.10;;;20.40;99.90;;;;;;5067309;28;20213;-29
2023/09/18 12:34:07;;;;;;;1.95;1.10;;;20.60;99.90;;;;;;5061483;28;20339;-30
2023/09/18 12:36:34;;;;;;;3.40;1.33;;;20.60;99.90;;;;;;5059693;28;20284;-29
2023/09/18 12:39:02;;;;;;;2.72;1.00;;;20.70;99.90;;;;;;5065488;28;20203;-29
2023/09/18 12:41:30;;;;;;;2.78;0.90;;;20.60;99.90;;;;;;5055453;28;20189;-30
2023/09/18 12:43:56;;;;;;;1.75;1.10;;;20.70;99.90;;;;;;5047901;28;20186;-29
2023/09/18 12:46:23;;;;;;;2.15;1.20;;;20.70;99.90;;;;;;5060769;28;20204;-30
2023/09/18 12:48:53;;;;;;;1.50;1.13;;;20.80;99.90;;;;;;5045855;28;20197;-30
2023/09/18 12:51:31;;;;;;;1.73;1.10;;;20.90;99.90;;;;;;5061507;28;20653;-29
2023/09/18 12:54:06;;;;;;;1.85;1.20;;;21.00;99.90;;;;;;5045551;28;20205;-30